sensor_id;sensor_type;location;lat;lon;timestamp;P1;durP1;ratioP1;P2;durP2;ratioP2
20593;SDS011;10455;48.732;10.266;2022-09-03T00:02:02;2.13;;;1.70;;
20593;SDS011;10455;48.732;10.266;2022-09-03T00:07:11;2.38;;;1.77;;
20593;SDS011;10455;48.732;10.266;2022-09-03T00:12:20;3.80;;;2.03;;
20593;SDS011;10455;48.732;10.266;2022-09-03T00:17:26;2.38;;;2.00;;
20593;SDS011;10455;48.732;10.266;2022-09-03T00:22:33;2.58;;;2.20;;
20593;SDS011;10455;48.732;10.266;2022-09-03T00:27:40;2.88;;;2.53;;
20593;SDS011;10455;48.732;10.266;2022-09-03T00:32:47;3.22;;;2.88;;
20593;SDS011;10455;48.732;10.266;2022-09-03T00:37:53;3.83;;;2.80;;
20593;SDS011;10455;48.732;10.266;2022-09-03T00:42:59;3.50;;;2.27;;
20593;SDS011;10455;48.732;10.266;2022-09-03T00:48:11;2.30;;;2.10;;
20593;SDS011;10455;48.732;10.266;2022-09-03T00:53:21;2.40;;;2.20;;
20593;SDS011;10455;48.732;10.266;2022-09-03T00:58:34;2.20;;;2.10;;
20593;SDS011;10455;48.732;10.266;2022-09-03T01:03:57;2.50;;;2.17;;
20593;SDS011;10455;48.732;10.266;2022-09-03T01:09:13;2.40;;;2.20;;
20593;SDS011;10455;48.732;10.266;2022-09-03T01:14:33;3.07;;;2.70;;
20593;SDS011;10455;48.732;10.266;2022-09-03T01:19:56;3.03;;;2.70;;
20593;SDS011;10455;48.732;10.266;2022-09-03T01:25:11;5.77;;;5.00;;
20593;SDS011;10455;48.732;10.266;2022-09-03T01:30:23;3.83;;;3.40;;
20593;SDS011;10455;48.732;10.266;2022-09-03T01:35:28;3.00;;;2.80;;
20593;SDS011;10455;48.732;10.266;2022-09-03T01:40:36;4.20;;;3.83;;
20593;SDS011;10455;48.732;10.266;2022-09-03T01:45:52;4.00;;;3.60;;
20593;SDS011;10455;48.732;10.266;2022-09-03T01:51:02;3.50;;;3.20;;
20593;SDS011;10455;48.732;10.266;2022-09-03T01:56:16;3.10;;;2.80;;
20593;SDS011;10455;48.732;10.266;2022-09-03T02:01:28;4.40;;;4.00;;
20593;SDS011;10455;48.732;10.266;2022-09-03T02:06:34;7.10;;;4.90;;
20593;SDS011;10455;48.732;10.266;2022-09-03T02:11:36;7.30;;;5.70;;
20593;SDS011;10455;48.732;10.266;2022-09-03T02:16:40;3.47;;;3.17;;
20593;SDS011;10455;48.732;10.266;2022-09-03T02:21:44;4.67;;;3.20;;
20593;SDS011;10455;48.732;10.266;2022-09-03T02:26:51;4.23;;;3.80;;
20593;SDS011;10455;48.732;10.266;2022-09-03T02:31:55;7.43;;;5.20;;
20593;SDS011;10455;48.732;10.266;2022-09-03T02:36:59;7.07;;;4.70;;
20593;SDS011;10455;48.732;10.266;2022-09-03T02:42:01;6.00;;;4.70;;
20593;SDS011;10455;48.732;10.266;2022-09-03T02:47:06;4.93;;;4.50;;
20593;SDS011;10455;48.732;10.266;2022-09-03T02:52:09;4.43;;;4.00;;
20593;SDS011;10455;48.732;10.266;2022-09-03T02:57:12;3.60;;;3.30;;
20593;SDS011;10455;48.732;10.266;2022-09-03T03:02:17;3.60;;;3.10;;
20593;SDS011;10455;48.732;10.266;2022-09-03T03:07:19;3.50;;;3.20;;
20593;SDS011;10455;48.732;10.266;2022-09-03T03:12:21;3.63;;;3.23;;
20593;SDS011;10455;48.732;10.266;2022-09-03T03:17:25;3.87;;;3.50;;
20593;SDS011;10455;48.732;10.266;2022-09-03T03:22:27;3.93;;;2.90;;
20593;SDS011;10455;48.732;10.266;2022-09-03T03:27:30;3.40;;;3.10;;
20593;SDS011;10455;48.732;10.266;2022-09-03T03:32:34;3.43;;;3.13;;
20593;SDS011;10455;48.732;10.266;2022-09-03T03:37:36;6.27;;;3.07;;
20593;SDS011;10455;48.732;10.266;2022-09-03T03:42:38;3.90;;;3.17;;
20593;SDS011;10455;48.732;10.266;2022-09-03T03:47:42;5.13;;;3.93;;
20593;SDS011;10455;48.732;10.266;2022-09-03T03:52:44;3.53;;;2.80;;
20593;SDS011;10455;48.732;10.266;2022-09-03T03:57:47;3.30;;;3.00;;
20593;SDS011;10455;48.732;10.266;2022-09-03T04:02:51;4.10;;;3.60;;
20593;SDS011;10455;48.732;10.266;2022-09-03T04:07:53;5.20;;;4.70;;
20593;SDS011;10455;48.732;10.266;2022-09-03T04:12:55;6.07;;;5.47;;
20593;SDS011;10455;48.732;10.266;2022-09-03T04:17:59;7.10;;;6.40;;
20593;SDS011;10455;48.732;10.266;2022-09-03T04:23:02;5.93;;;5.33;;
20593;SDS011;10455;48.732;10.266;2022-09-03T04:28:05;5.80;;;5.30;;
20593;SDS011;10455;48.732;10.266;2022-09-03T04:33:09;6.23;;;5.17;;
20593;SDS011;10455;48.732;10.266;2022-09-03T04:38:11;7.47;;;5.60;;
20593;SDS011;10455;48.732;10.266;2022-09-03T04:43:13;5.37;;;4.70;;
20593;SDS011;10455;48.732;10.266;2022-09-03T04:48:17;4.40;;;4.00;;
20593;SDS011;10455;48.732;10.266;2022-09-03T04:53:19;4.00;;;3.70;;
20593;SDS011;10455;48.732;10.266;2022-09-03T04:58:22;4.57;;;4.17;;
20593;SDS011;10455;48.732;10.266;2022-09-03T05:03:25;4.37;;;3.87;;
20593;SDS011;10455;48.732;10.266;2022-09-03T05:08:28;3.53;;;3.30;;
20593;SDS011;10455;48.732;10.266;2022-09-03T05:13:30;3.90;;;3.50;;
20593;SDS011;10455;48.732;10.266;2022-09-03T05:18:35;4.20;;;3.20;;
20593;SDS011;10455;48.732;10.266;2022-09-03T05:23:38;3.43;;;2.70;;
20593;SDS011;10455;48.732;10.266;2022-09-03T05:28:42;3.07;;;2.77;;
20593;SDS011;10455;48.732;10.266;2022-09-03T05:33:47;3.28;;;2.97;;
20593;SDS011;10455;48.732;10.266;2022-09-03T05:38:50;4.32;;;3.38;;
20593;SDS011;10455;48.732;10.266;2022-09-03T05:43:54;3.78;;;2.83;;
20593;SDS011;10455;48.732;10.266;2022-09-03T05:48:59;4.63;;;2.80;;
20593;SDS011;10455;48.732;10.266;2022-09-03T05:54:03;2.95;;;2.65;;
20593;SDS011;10455;48.732;10.266;2022-09-03T05:59:08;3.20;;;2.58;;
20593;SDS011;10455;48.732;10.266;2022-09-03T06:04:14;3.05;;;2.60;;
20593;SDS011;10455;48.732;10.266;2022-09-03T06:09:17;3.50;;;2.90;;
20593;SDS011;10455;48.732;10.266;2022-09-03T06:14:20;4.00;;;2.83;;
20593;SDS011;10455;48.732;10.266;2022-09-03T06:19:24;3.20;;;2.90;;
20593;SDS011;10455;48.732;10.266;2022-09-03T06:24:26;3.13;;;2.80;;
20593;SDS011;10455;48.732;10.266;2022-09-03T06:29:28;2.80;;;2.58;;
20593;SDS011;10455;48.732;10.266;2022-09-03T06:34:32;6.40;;;3.00;;
20593;SDS011;10455;48.732;10.266;2022-09-03T06:39:34;3.30;;;3.00;;
20593;SDS011;10455;48.732;10.266;2022-09-03T06:44:36;5.25;;;3.50;;
20593;SDS011;10455;48.732;10.266;2022-09-03T06:49:40;4.03;;;3.63;;
20593;SDS011;10455;48.732;10.266;2022-09-03T06:54:43;5.20;;;3.60;;
20593;SDS011;10455;48.732;10.266;2022-09-03T06:59:46;3.70;;;3.40;;
20593;SDS011;10455;48.732;10.266;2022-09-03T07:04:50;3.95;;;3.55;;
20593;SDS011;10455;48.732;10.266;2022-09-03T07:09:52;3.88;;;3.58;;
20593;SDS011;10455;48.732;10.266;2022-09-03T07:14:54;4.90;;;4.40;;
20593;SDS011;10455;48.732;10.266;2022-09-03T07:19:58;5.22;;;4.82;;
20593;SDS011;10455;48.732;10.266;2022-09-03T07:25:01;5.10;;;4.70;;
20593;SDS011;10455;48.732;10.266;2022-09-03T07:30:04;5.03;;;4.57;;
20593;SDS011;10455;48.732;10.266;2022-09-03T07:35:10;6.38;;;4.55;;
20593;SDS011;10455;48.732;10.266;2022-09-03T07:40:12;4.65;;;4.03;;
20593;SDS011;10455;48.732;10.266;2022-09-03T07:45:19;6.18;;;4.93;;
20593;SDS011;10455;48.732;10.266;2022-09-03T07:50:23;10.18;;;4.75;;
20593;SDS011;10455;48.732;10.266;2022-09-03T07:55:25;5.85;;;3.63;;
20593;SDS011;10455;48.732;10.266;2022-09-03T08:00:28;3.92;;;3.55;;
20593;SDS011;10455;48.732;10.266;2022-09-03T08:05:35;6.43;;;3.85;;
20593;SDS011;10455;48.732;10.266;2022-09-03T08:10:37;3.75;;;3.40;;
20593;SDS011;10455;48.732;10.266;2022-09-03T08:15:39;4.95;;;3.47;;
20593;SDS011;10455;48.732;10.266;2022-09-03T08:20:43;3.92;;;3.63;;
20593;SDS011;10455;48.732;10.266;2022-09-03T08:25:46;4.55;;;4.10;;
20593;SDS011;10455;48.732;10.266;2022-09-03T08:30:48;4.30;;;3.35;;
20593;SDS011;10455;48.732;10.266;2022-09-03T08:35:52;6.18;;;3.85;;
20593;SDS011;10455;48.732;10.266;2022-09-03T08:41:01;4.55;;;4.13;;
20593;SDS011;10455;48.732;10.266;2022-09-03T08:46:04;3.83;;;3.50;;
20593;SDS011;10455;48.732;10.266;2022-09-03T08:51:09;3.53;;;3.22;;
20593;SDS011;10455;48.732;10.266;2022-09-03T08:56:13;3.22;;;2.92;;
20593;SDS011;10455;48.732;10.266;2022-09-03T09:01:27;3.30;;;2.95;;
20593;SDS011;10455;48.732;10.266;2022-09-03T09:06:40;4.18;;;3.10;;
20593;SDS011;10455;48.732;10.266;2022-09-03T09:11:53;3.33;;;2.95;;
20593;SDS011;10455;48.732;10.266;2022-09-03T09:17:10;4.03;;;2.90;;
20593;SDS011;10455;48.732;10.266;2022-09-03T09:22:30;3.17;;;2.97;;
20593;SDS011;10455;48.732;10.266;2022-09-03T09:27:37;5.53;;;3.58;;
20593;SDS011;10455;48.732;10.266;2022-09-03T09:32:45;4.15;;;3.20;;
20593;SDS011;10455;48.732;10.266;2022-09-03T09:37:50;4.30;;;3.20;;
20593;SDS011;10455;48.732;10.266;2022-09-03T09:43:01;4.13;;;3.72;;
20593;SDS011;10455;48.732;10.266;2022-09-03T09:48:10;3.72;;;3.42;;
20593;SDS011;10455;48.732;10.266;2022-09-03T09:53:20;4.22;;;3.90;;
20593;SDS011;10455;48.732;10.266;2022-09-03T09:58:23;4.90;;;3.85;;
20593;SDS011;10455;48.732;10.266;2022-09-03T10:03:27;3.90;;;3.60;;
20593;SDS011;10455;48.732;10.266;2022-09-03T10:08:35;4.40;;;3.30;;
20593;SDS011;10455;48.732;10.266;2022-09-03T10:13:38;4.20;;;3.80;;
20593;SDS011;10455;48.732;10.266;2022-09-03T10:18:44;4.63;;;3.08;;
20593;SDS011;10455;48.732;10.266;2022-09-03T10:23:57;3.55;;;3.25;;
20593;SDS011;10455;48.732;10.266;2022-09-03T10:29:05;4.35;;;3.40;;
20593;SDS011;10455;48.732;10.266;2022-09-03T10:34:09;3.20;;;2.90;;
20593;SDS011;10455;48.732;10.266;2022-09-03T10:39:20;4.53;;;3.03;;
20593;SDS011;10455;48.732;10.266;2022-09-03T10:44:31;4.00;;;3.20;;
20593;SDS011;10455;48.732;10.266;2022-09-03T10:49:48;3.47;;;3.17;;
20593;SDS011;10455;48.732;10.266;2022-09-03T10:55:01;3.97;;;3.50;;
20593;SDS011;10455;48.732;10.266;2022-09-03T11:00:13;2.97;;;2.67;;
20593;SDS011;10455;48.732;10.266;2022-09-03T11:05:17;3.20;;;2.90;;
20593;SDS011;10455;48.732;10.266;2022-09-03T11:10:24;3.40;;;2.92;;
20593;SDS011;10455;48.732;10.266;2022-09-03T11:15:30;3.00;;;2.80;;
20593;SDS011;10455;48.732;10.266;2022-09-03T11:20:34;3.22;;;2.92;;
20593;SDS011;10455;48.732;10.266;2022-09-03T11:25:40;3.75;;;2.50;;
20593;SDS011;10455;48.732;10.266;2022-09-03T11:30:48;2.42;;;2.22;;
20593;SDS011;10455;48.732;10.266;2022-09-03T11:35:57;2.60;;;2.40;;
20593;SDS011;10455;48.732;10.266;2022-09-03T11:41:09;3.40;;;2.75;;
20593;SDS011;10455;48.732;10.266;2022-09-03T11:46:25;3.90;;;2.50;;
20593;SDS011;10455;48.732;10.266;2022-09-03T11:51:30;2.75;;;2.50;;
20593;SDS011;10455;48.732;10.266;2022-09-03T11:56:36;2.60;;;2.40;;
20593;SDS011;10455;48.732;10.266;2022-09-03T12:01:38;2.67;;;2.47;;
20593;SDS011;10455;48.732;10.266;2022-09-03T12:06:54;2.17;;;1.95;;
20593;SDS011;10455;48.732;10.266;2022-09-03T12:12:10;2.03;;;1.80;;
20593;SDS011;10455;48.732;10.266;2022-09-03T12:17:31;2.50;;;2.30;;
20593;SDS011;10455;48.732;10.266;2022-09-03T12:22:38;2.70;;;2.50;;
20593;SDS011;10455;48.732;10.266;2022-09-03T12:27:43;3.03;;;2.30;;
20593;SDS011;10455;48.732;10.266;2022-09-03T12:32:48;2.80;;;2.50;;
20593;SDS011;10455;48.732;10.266;2022-09-03T12:37:51;3.35;;;2.67;;
20593;SDS011;10455;48.732;10.266;2022-09-03T12:42:59;3.08;;;2.80;;
20593;SDS011;10455;48.732;10.266;2022-09-03T12:48:13;4.70;;;2.90;;
20593;SDS011;10455;48.732;10.266;2022-09-03T12:53:17;3.67;;;3.33;;
20593;SDS011;10455;48.732;10.266;2022-09-03T12:58:26;10.18;;;5.82;;
20593;SDS011;10455;48.732;10.266;2022-09-03T13:03:40;4.72;;;3.67;;
20593;SDS011;10455;48.732;10.266;2022-09-03T13:08:48;4.03;;;3.60;;
20593;SDS011;10455;48.732;10.266;2022-09-03T13:13:55;4.90;;;3.08;;
20593;SDS011;10455;48.732;10.266;2022-09-03T13:19:05;5.60;;;2.10;;
20593;SDS011;10455;48.732;10.266;2022-09-03T13:24:19;3.90;;;2.55;;
20593;SDS011;10455;48.732;10.266;2022-09-03T13:29:41;5.78;;;3.28;;
20593;SDS011;10455;48.732;10.266;2022-09-03T13:35:01;9.35;;;5.00;;
20593;SDS011;10455;48.732;10.266;2022-09-03T13:40:13;11.80;;;6.18;;
20593;SDS011;10455;48.732;10.266;2022-09-03T13:45:25;8.50;;;6.68;;
20593;SDS011;10455;48.732;10.266;2022-09-03T13:50:38;8.63;;;6.47;;
20593;SDS011;10455;48.732;10.266;2022-09-03T13:55:47;7.82;;;4.72;;
20593;SDS011;10455;48.732;10.266;2022-09-03T14:00:53;5.72;;;4.82;;
20593;SDS011;10455;48.732;10.266;2022-09-03T14:06:12;7.97;;;5.15;;
20593;SDS011;10455;48.732;10.266;2022-09-03T14:11:27;100.45;;;9.50;;
20593;SDS011;10455;48.732;10.266;2022-09-03T14:16:36;34.42;;;3.75;;
20593;SDS011;10455;48.732;10.266;2022-09-03T14:21:43;2.45;;;2.00;;
20593;SDS011;10455;48.732;10.266;2022-09-03T14:26:53;6.13;;;1.98;;
20593;SDS011;10455;48.732;10.266;2022-09-03T14:32:07;2.78;;;1.80;;
20593;SDS011;10455;48.732;10.266;2022-09-03T14:37:29;1.90;;;1.58;;
20593;SDS011;10455;48.732;10.266;2022-09-03T14:42:42;2.55;;;2.08;;
20593;SDS011;10455;48.732;10.266;2022-09-03T14:48:06;1.77;;;1.55;;
20593;SDS011;10455;48.732;10.266;2022-09-03T14:53:28;1.70;;;1.60;;
20593;SDS011;10455;48.732;10.266;2022-09-03T14:58:47;2.10;;;1.80;;
20593;SDS011;10455;48.732;10.266;2022-09-03T15:04:19;2.53;;;2.03;;
20593;SDS011;10455;48.732;10.266;2022-09-03T15:09:39;2.60;;;1.88;;
20593;SDS011;10455;48.732;10.266;2022-09-03T15:14:49;2.92;;;2.63;;
20593;SDS011;10455;48.732;10.266;2022-09-03T15:20:02;2.20;;;2.00;;
20593;SDS011;10455;48.732;10.266;2022-09-03T15:25:18;2.05;;;1.85;;
20593;SDS011;10455;48.732;10.266;2022-09-03T15:30:32;3.78;;;2.00;;
20593;SDS011;10455;48.732;10.266;2022-09-03T15:41:20;1.92;;;1.55;;
20593;SDS011;10455;48.732;10.266;2022-09-03T15:46:36;2.58;;;1.70;;
20593;SDS011;10455;48.732;10.266;2022-09-03T15:51:50;2.35;;;1.38;;
20593;SDS011;10455;48.732;10.266;2022-09-03T15:57:02;2.47;;;1.45;;
20593;SDS011;10455;48.732;10.266;2022-09-03T16:02:08;1.52;;;1.20;;
20593;SDS011;10455;48.732;10.266;2022-09-03T16:07:17;1.20;;;1.20;;
20593;SDS011;10455;48.732;10.266;2022-09-03T16:12:29;1.40;;;1.30;;
20593;SDS011;10455;48.732;10.266;2022-09-03T16:17:37;1.70;;;1.60;;
20593;SDS011;10455;48.732;10.266;2022-09-03T16:22:53;1.80;;;1.30;;
20593;SDS011;10455;48.732;10.266;2022-09-03T16:28:02;2.75;;;1.40;;
20593;SDS011;10455;48.732;10.266;2022-09-03T16:33:10;1.40;;;1.30;;
20593;SDS011;10455;48.732;10.266;2022-09-03T16:38:25;1.50;;;1.40;;
20593;SDS011;10455;48.732;10.266;2022-09-03T16:43:37;3.05;;;1.60;;
20593;SDS011;10455;48.732;10.266;2022-09-03T16:48:47;1.42;;;1.33;;
20593;SDS011;10455;48.732;10.266;2022-09-03T16:54:01;1.60;;;1.50;;
20593;SDS011;10455;48.732;10.266;2022-09-03T16:59:40;1.50;;;1.40;;
20593;SDS011;10455;48.732;10.266;2022-09-03T17:10:51;1.63;;;1.50;;
20593;SDS011;10455;48.732;10.266;2022-09-03T17:16:03;1.75;;;1.63;;
20593;SDS011;10455;48.732;10.266;2022-09-03T17:26:42;1.73;;;1.60;;
20593;SDS011;10455;48.732;10.266;2022-09-03T17:31:58;2.60;;;1.58;;
20593;SDS011;10455;48.732;10.266;2022-09-03T17:37:10;2.47;;;1.98;;
20593;SDS011;10455;48.732;10.266;2022-09-03T17:42:23;2.67;;;2.30;;
20593;SDS011;10455;48.732;10.266;2022-09-03T17:47:41;2.30;;;2.10;;
20593;SDS011;10455;48.732;10.266;2022-09-03T17:53:08;2.42;;;2.22;;
20593;SDS011;10455;48.732;10.266;2022-09-03T17:58:13;2.78;;;2.55;;
20593;SDS011;10455;48.732;10.266;2022-09-03T18:03:22;2.25;;;2.05;;
20593;SDS011;10455;48.732;10.266;2022-09-03T18:08:32;3.65;;;2.55;;
20593;SDS011;10455;48.732;10.266;2022-09-03T18:13:45;2.97;;;2.67;;
20593;SDS011;10455;48.732;10.266;2022-09-03T18:18:58;2.30;;;2.10;;
20593;SDS011;10455;48.732;10.266;2022-09-03T18:24:05;2.80;;;2.60;;
20593;SDS011;10455;48.732;10.266;2022-09-03T18:29:36;3.05;;;2.38;;
20593;SDS011;10455;48.732;10.266;2022-09-03T18:35:08;2.63;;;2.42;;
20593;SDS011;10455;48.732;10.266;2022-09-03T18:40:30;3.20;;;2.58;;
20593;SDS011;10455;48.732;10.266;2022-09-03T18:46:02;3.22;;;2.90;;
20593;SDS011;10455;48.732;10.266;2022-09-03T18:51:29;2.58;;;2.30;;
20593;SDS011;10455;48.732;10.266;2022-09-03T18:56:56;3.53;;;3.23;;
20593;SDS011;10455;48.732;10.266;2022-09-03T19:02:22;4.13;;;2.53;;
20593;SDS011;10455;48.732;10.266;2022-09-03T19:07:54;3.20;;;3.00;;
20593;SDS011;10455;48.732;10.266;2022-09-03T19:13:21;4.03;;;3.37;;
20593;SDS011;10455;48.732;10.266;2022-09-03T19:24:59;3.40;;;3.10;;
20593;SDS011;10455;48.732;10.266;2022-09-03T19:30:23;3.20;;;2.87;;
20593;SDS011;10455;48.732;10.266;2022-09-03T19:35:48;4.13;;;3.83;;
20593;SDS011;10455;48.732;10.266;2022-09-03T19:41:16;3.73;;;3.40;;
20593;SDS011;10455;48.732;10.266;2022-09-03T19:46:44;5.13;;;2.80;;
20593;SDS011;10455;48.732;10.266;2022-09-03T19:52:08;3.20;;;3.00;;
20593;SDS011;10455;48.732;10.266;2022-09-03T19:57:35;3.97;;;3.10;;
20593;SDS011;10455;48.732;10.266;2022-09-03T20:02:54;3.03;;;2.83;;
20593;SDS011;10455;48.732;10.266;2022-09-03T20:08:16;3.17;;;2.87;;
20593;SDS011;10455;48.732;10.266;2022-09-03T20:13:39;3.20;;;2.90;;
20593;SDS011;10455;48.732;10.266;2022-09-03T20:19:00;5.27;;;3.30;;
20593;SDS011;10455;48.732;10.266;2022-09-03T20:24:17;4.23;;;3.30;;
20593;SDS011;10455;48.732;10.266;2022-09-03T20:29:35;3.63;;;3.33;;
20593;SDS011;10455;48.732;10.266;2022-09-03T20:34:56;3.50;;;3.03;;
20593;SDS011;10455;48.732;10.266;2022-09-03T20:40:08;4.50;;;3.50;;
20593;SDS011;10455;48.732;10.266;2022-09-03T20:45:24;3.97;;;3.67;;
20593;SDS011;10455;48.732;10.266;2022-09-03T20:50:36;2.97;;;2.77;;
20593;SDS011;10455;48.732;10.266;2022-09-03T20:55:45;3.00;;;2.80;;
20593;SDS011;10455;48.732;10.266;2022-09-03T21:00:55;3.43;;;3.03;;
20593;SDS011;10455;48.732;10.266;2022-09-03T21:06:08;3.47;;;3.17;;
20593;SDS011;10455;48.732;10.266;2022-09-03T21:11:17;3.67;;;3.37;;
20593;SDS011;10455;48.732;10.266;2022-09-03T21:16:30;3.70;;;3.37;;
20593;SDS011;10455;48.732;10.266;2022-09-03T21:21:41;3.27;;;2.97;;
20593;SDS011;10455;48.732;10.266;2022-09-03T21:26:52;3.13;;;2.93;;
20593;SDS011;10455;48.732;10.266;2022-09-03T21:32:00;4.00;;;3.40;;
20593;SDS011;10455;48.732;10.266;2022-09-03T21:37:07;6.33;;;3.10;;
20593;SDS011;10455;48.732;10.266;2022-09-03T21:42:12;5.30;;;2.90;;
20593;SDS011;10455;48.732;10.266;2022-09-03T21:47:26;6.37;;;3.80;;
20593;SDS011;10455;48.732;10.266;2022-09-03T21:52:32;4.10;;;3.23;;
20593;SDS011;10455;48.732;10.266;2022-09-03T21:57:43;4.63;;;3.73;;
20593;SDS011;10455;48.732;10.266;2022-09-03T22:03:02;4.63;;;4.20;;
20593;SDS011;10455;48.732;10.266;2022-09-03T22:08:11;4.40;;;4.00;;
20593;SDS011;10455;48.732;10.266;2022-09-03T22:13:20;3.63;;;3.20;;
20593;SDS011;10455;48.732;10.266;2022-09-03T22:18:30;3.40;;;3.10;;
20593;SDS011;10455;48.732;10.266;2022-09-03T22:23:38;4.30;;;4.00;;
20593;SDS011;10455;48.732;10.266;2022-09-03T22:28:57;4.03;;;3.70;;
20593;SDS011;10455;48.732;10.266;2022-09-03T22:34:12;5.97;;;5.57;;
20593;SDS011;10455;48.732;10.266;2022-09-03T22:39:26;5.17;;;4.17;;
20593;SDS011;10455;48.732;10.266;2022-09-03T22:44:36;4.07;;;3.53;;
20593;SDS011;10455;48.732;10.266;2022-09-03T22:49:55;4.53;;;4.13;;
20593;SDS011;10455;48.732;10.266;2022-09-03T22:55:08;4.80;;;4.30;;
20593;SDS011;10455;48.732;10.266;2022-09-03T23:00:15;5.00;;;4.30;;
20593;SDS011;10455;48.732;10.266;2022-09-03T23:05:26;5.07;;;4.57;;
20593;SDS011;10455;48.732;10.266;2022-09-03T23:10:35;4.33;;;3.93;;
20593;SDS011;10455;48.732;10.266;2022-09-03T23:15:56;5.33;;;4.83;;
20593;SDS011;10455;48.732;10.266;2022-09-03T23:21:05;5.50;;;5.00;;
20593;SDS011;10455;48.732;10.266;2022-09-03T23:26:22;5.73;;;5.13;;
20593;SDS011;10455;48.732;10.266;2022-09-03T23:31:31;6.73;;;5.90;;
20593;SDS011;10455;48.732;10.266;2022-09-03T23:36:41;5.77;;;5.13;;
20593;SDS011;10455;48.732;10.266;2022-09-03T23:42:06;5.67;;;5.27;;
20593;SDS011;10455;48.732;10.266;2022-09-03T23:47:18;4.60;;;4.20;;
20593;SDS011;10455;48.732;10.266;2022-09-03T23:52:36;6.37;;;5.77;;
20593;SDS011;10455;48.732;10.266;2022-09-03T23:57:51;6.13;;;5.53;;
